createdAt,value
2023-03-29T00:02:30.540Z,4.00
2023-03-29T00:05:02.025Z,4.53
2023-03-29T00:07:30.275Z,4.35
2023-03-29T00:10:06.842Z,4.05
2023-03-29T00:12:34.881Z,4.22
2023-03-29T00:15:02.901Z,4.82
2023-03-29T00:17:30.500Z,4.60
2023-03-29T00:19:59.499Z,4.82
2023-03-29T00:22:27.065Z,5.35
2023-03-29T00:24:54.861Z,4.70
2023-03-29T00:27:22.536Z,4.47
2023-03-29T00:29:50.084Z,4.57
2023-03-29T00:32:17.656Z,4.32
2023-03-29T00:34:46.074Z,4.45
2023-03-29T00:37:15.080Z,4.03
2023-03-29T00:39:43.998Z,4.40
2023-03-29T00:42:13.117Z,4.05
2023-03-29T00:44:56.963Z,3.85
2023-03-29T00:47:27.832Z,4.15
2023-03-29T00:49:55.642Z,4.40
2023-03-29T00:52:30.070Z,4.72
2023-03-29T00:54:59.745Z,4.05
2023-03-29T00:57:29.183Z,4.53
2023-03-29T00:59:57.773Z,4.78
2023-03-29T01:02:27.041Z,4.55
2023-03-29T01:04:58.256Z,4.10
2023-03-29T01:07:30.761Z,3.33
2023-03-29T01:10:00.771Z,4.20
2023-03-29T01:12:32.797Z,4.05
2023-03-29T01:15:03.555Z,3.65
2023-03-29T01:17:33.216Z,4.22
2023-03-29T01:20:08.016Z,3.80
2023-03-29T01:22:43.313Z,4.28
2023-03-29T01:25:14.293Z,3.85
2023-03-29T01:27:49.958Z,4.22
2023-03-29T01:30:19.505Z,4.03
2023-03-29T01:32:50.528Z,3.90
2023-03-29T01:35:22.019Z,4.28
2023-03-29T01:37:56.762Z,3.90
2023-03-29T01:40:27.232Z,4.20
2023-03-29T01:43:00.768Z,3.80
2023-03-29T01:45:32.449Z,3.63
2023-03-29T01:48:03.785Z,3.95
2023-03-29T01:50:39.220Z,4.10
2023-03-29T01:53:09.202Z,4.15
2023-03-29T01:55:39.268Z,4.75
2023-03-29T01:58:09.552Z,3.90
2023-03-29T02:00:37.178Z,4.07
2023-03-29T02:03:08.194Z,4.25
2023-03-29T02:05:36.806Z,3.97
2023-03-29T02:08:06.299Z,4.10
2023-03-29T02:10:35.095Z,3.60
2023-03-29T02:13:02.600Z,3.97
2023-03-29T02:15:31.431Z,3.90
2023-03-29T02:17:59.008Z,3.50
2023-03-29T02:20:29.124Z,3.42
2023-03-29T02:23:02.138Z,3.17
2023-03-29T02:25:30.155Z,3.10
2023-03-29T02:27:57.870Z,3.60
2023-03-29T02:30:28.218Z,4.20
2023-03-29T02:33:00.389Z,3.85
2023-03-29T02:35:34.477Z,4.72
2023-03-29T02:38:04.400Z,4.50
2023-03-29T02:40:32.564Z,5.03
2023-03-29T02:43:01.759Z,3.42
2023-03-29T02:45:30.115Z,4.20
2023-03-29T02:48:01.354Z,4.50
2023-03-29T02:50:31.224Z,4.30
2023-03-29T02:53:01.752Z,3.78
2023-03-29T02:55:34.508Z,4.20
2023-03-29T02:58:03.385Z,3.67
2023-03-29T03:00:30.881Z,4.18
2023-03-29T03:03:01.896Z,4.07
2023-03-29T03:05:29.683Z,3.20
2023-03-29T03:07:57.249Z,4.35
2023-03-29T03:10:25.034Z,4.32
2023-03-29T03:12:52.543Z,3.90
2023-03-29T03:15:20.945Z,4.25
2023-03-29T03:17:49.329Z,4.47
2023-03-29T03:20:18.362Z,4.30
2023-03-29T03:22:48.926Z,4.90
2023-03-29T03:25:19.393Z,3.97
2023-03-29T03:27:46.963Z,4.25
2023-03-29T03:30:15.079Z,4.90
2023-03-29T03:32:43.565Z,4.43
2023-03-29T03:35:11.806Z,4.47
2023-03-29T03:37:40.723Z,4.53
2023-03-29T03:40:11.642Z,4.53
2023-03-29T03:42:39.659Z,4.10
2023-03-29T03:45:09.178Z,4.65
2023-03-29T03:47:37.648Z,4.57
2023-03-29T03:50:06.441Z,4.82
2023-03-29T03:52:34.013Z,4.10
2023-03-29T03:55:03.493Z,4.78
2023-03-29T03:57:33.131Z,4.20
2023-03-29T04:00:00.889Z,4.38
2023-03-29T04:02:28.533Z,4.25
2023-03-29T04:04:56.058Z,4.15
2023-03-29T04:07:25.380Z,5.03
2023-03-29T04:09:52.998Z,4.47
2023-03-29T04:12:22.130Z,5.70
2023-03-29T04:14:49.941Z,3.97
2023-03-29T04:17:17.451Z,4.57
2023-03-29T04:19:44.894Z,4.03
2023-03-29T04:22:12.432Z,4.43
2023-03-29T04:24:39.947Z,4.30
2023-03-29T04:27:09.024Z,5.03
2023-03-29T04:29:38.099Z,4.22
2023-03-29T04:32:05.967Z,4.30
2023-03-29T04:34:33.462Z,4.45
2023-03-29T04:37:01.000Z,4.72
2023-03-29T04:39:33.915Z,5.40
2023-03-29T04:42:04.170Z,4.72
2023-03-29T04:47:02.182Z,4.70
2023-03-29T04:49:30.113Z,4.70
2023-03-29T04:51:57.580Z,5.22
2023-03-29T04:54:25.109Z,5.30
2023-03-29T04:56:52.764Z,4.85
2023-03-29T04:59:20.386Z,4.93
2023-03-29T05:01:47.904Z,4.35
2023-03-29T05:04:18.412Z,4.63
2023-03-29T05:06:45.955Z,4.75
2023-03-29T05:09:13.476Z,5.18
2023-03-29T05:11:41.004Z,4.80
2023-03-29T05:14:09.322Z,4.35
2023-03-29T05:16:38.082Z,4.22
2023-03-29T05:19:05.622Z,4.50
2023-03-29T05:21:34.489Z,4.50
2023-03-29T05:24:02.787Z,4.68
2023-03-29T05:26:30.537Z,4.55
2023-03-29T05:28:58.073Z,5.07
2023-03-29T05:31:25.634Z,4.88
2023-03-29T05:33:53.508Z,4.78
2023-03-29T05:36:21.000Z,4.85
2023-03-29T05:38:50.050Z,4.40
2023-03-29T05:41:18.792Z,5.57
2023-03-29T05:43:46.759Z,5.10
2023-03-29T05:46:14.265Z,4.75
2023-03-29T05:48:42.041Z,5.50
2023-03-29T05:51:09.809Z,5.10
2023-03-29T05:53:37.888Z,4.47
2023-03-29T05:56:08.816Z,4.60
2023-03-29T05:58:36.349Z,4.97
2023-03-29T06:01:05.392Z,4.78
2023-03-29T06:03:33.683Z,5.43
2023-03-29T06:06:04.051Z,4.88
2023-03-29T06:08:32.022Z,5.50
2023-03-29T06:11:02.477Z,5.13
2023-03-29T06:13:34.637Z,5.68
2023-03-29T06:16:02.398Z,4.95
2023-03-29T06:18:30.045Z,5.68
2023-03-29T06:20:57.576Z,4.78
2023-03-29T06:23:25.182Z,4.95
2023-03-29T06:25:52.878Z,4.85
2023-03-29T06:28:20.612Z,5.32
2023-03-29T06:30:49.583Z,4.57
2023-03-29T06:33:18.851Z,5.03
2023-03-29T06:35:47.986Z,4.63
2023-03-29T06:38:15.819Z,4.90
2023-03-29T06:40:44.751Z,5.05
2023-03-29T06:43:12.970Z,4.78
2023-03-29T06:45:41.046Z,4.18
2023-03-29T06:48:12.396Z,4.57
2023-03-29T06:50:39.877Z,4.63
2023-03-29T06:53:07.372Z,4.78
2023-03-29T06:55:36.001Z,5.47
2023-03-29T06:58:04.270Z,4.82
2023-03-29T07:00:35.757Z,4.85
2023-03-29T07:03:06.580Z,4.50
2023-03-29T07:05:37.244Z,5.13
2023-03-29T07:08:13.941Z,4.50
2023-03-29T07:10:43.838Z,4.03
2023-03-29T07:13:13.307Z,4.88
2023-03-29T07:15:41.542Z,4.47
2023-03-29T07:18:09.432Z,4.57
2023-03-29T07:20:38.708Z,4.53
2023-03-29T07:23:06.510Z,5.30
2023-03-29T07:25:34.045Z,4.70
2023-03-29T07:28:01.638Z,5.18
2023-03-29T07:30:31.980Z,4.50
2023-03-29T07:33:00.600Z,4.87
2023-03-29T07:35:38.269Z,4.82
2023-03-29T07:38:08.221Z,4.10
2023-03-29T07:40:35.731Z,5.18
2023-03-29T07:43:08.851Z,4.10
2023-03-29T07:45:37.138Z,3.92
2023-03-29T07:48:05.388Z,3.92
2023-03-29T07:50:32.983Z,3.83
2023-03-29T07:53:01.591Z,3.88
2023-03-29T07:55:31.049Z,3.88
2023-03-29T07:57:58.542Z,4.50
2023-03-29T08:00:26.290Z,3.47
2023-03-29T08:02:53.826Z,3.65
2023-03-29T08:05:37.921Z,3.40
2023-03-29T08:08:06.598Z,3.38
2023-03-29T08:10:35.365Z,3.38
2023-03-29T08:13:06.051Z,3.40
2023-03-29T08:15:34.282Z,3.75
2023-03-29T08:18:01.780Z,3.33
2023-03-29T08:20:29.330Z,2.90
2023-03-29T08:22:57.133Z,3.45
2023-03-29T08:25:24.746Z,3.63
2023-03-29T08:27:53.734Z,2.65
2023-03-29T08:30:21.682Z,3.45
2023-03-29T08:32:51.646Z,3.45
2023-03-29T08:35:21.377Z,3.10
2023-03-29T08:37:48.887Z,3.72
2023-03-29T08:40:19.259Z,3.08
2023-03-29T08:42:58.352Z,3.35
2023-03-29T08:45:31.551Z,3.40
2023-03-29T08:48:05.260Z,3.45
2023-03-29T08:50:35.296Z,3.22
2023-03-29T08:53:05.654Z,3.10
2023-03-29T08:55:35.153Z,3.25
2023-03-29T08:58:04.504Z,3.42
2023-03-29T09:00:35.997Z,3.72
2023-03-29T09:03:04.729Z,3.15
2023-03-29T09:05:37.091Z,3.90
2023-03-29T09:08:04.894Z,3.15
2023-03-29T09:10:37.199Z,2.92
2023-03-29T09:13:17.361Z,3.53
2023-03-29T09:15:50.393Z,3.30
2023-03-29T09:18:24.238Z,3.10
2023-03-29T09:20:55.219Z,3.13
2023-03-29T09:23:32.386Z,3.07
2023-03-29T09:26:03.254Z,3.42
2023-03-29T09:28:37.067Z,3.20
2023-03-29T09:31:07.448Z,3.50
2023-03-29T09:33:42.809Z,2.97
2023-03-29T09:36:12.759Z,3.00
2023-03-29T09:38:43.381Z,3.28
2023-03-29T09:41:21.468Z,3.40
2023-03-29T09:43:51.734Z,2.92
2023-03-29T09:46:23.957Z,3.22
2023-03-29T09:48:51.603Z,3.08
2023-03-29T09:51:20.765Z,3.33
2023-03-29T09:53:48.245Z,3.33
2023-03-29T09:56:16.303Z,3.15
2023-03-29T09:58:46.516Z,3.80
2023-03-29T10:01:17.380Z,3.67
2023-03-29T10:03:49.326Z,3.30
2023-03-29T10:08:47.972Z,3.00
2023-03-29T10:11:22.062Z,3.03
2023-03-29T10:13:53.717Z,3.13
2023-03-29T10:16:23.953Z,3.40
2023-03-29T10:18:51.908Z,3.30
2023-03-29T10:21:21.012Z,3.08
2023-03-29T10:23:49.664Z,3.30
2023-03-29T10:26:25.996Z,3.50
2023-03-29T10:28:57.271Z,3.72
2023-03-29T10:31:26.382Z,3.13
2023-03-29T10:33:56.368Z,3.40
2023-03-29T10:36:25.331Z,3.40
2023-03-29T10:38:54.381Z,3.47
2023-03-29T10:41:23.414Z,3.28
2023-03-29T10:43:52.163Z,3.03
2023-03-29T10:46:22.532Z,2.97
2023-03-29T10:48:53.174Z,3.13
2023-03-29T10:51:21.075Z,3.45
2023-03-29T10:53:48.621Z,3.75
2023-03-29T10:56:31.141Z,4.57
2023-03-29T10:59:29.870Z,3.35
2023-03-29T11:02:27.214Z,3.45
2023-03-29T11:05:03.161Z,3.63
2023-03-29T11:07:32.413Z,4.13
2023-03-29T11:10:06.289Z,3.25
2023-03-29T11:12:39.794Z,3.83
2023-03-29T11:15:22.240Z,3.70
2023-03-29T11:17:59.597Z,3.75
2023-03-29T11:20:34.720Z,3.38
2023-03-29T11:23:11.118Z,3.80
2023-03-29T11:25:47.551Z,3.40
2023-03-29T11:28:21.358Z,3.65
2023-03-29T11:30:53.427Z,4.30
2023-03-29T11:33:32.089Z,3.90
2023-03-29T11:36:06.981Z,3.60
2023-03-29T11:38:38.334Z,4.70
2023-03-29T11:41:13.550Z,4.43
2023-03-29T11:43:44.198Z,4.18
2023-03-29T11:46:15.359Z,4.70
2023-03-29T11:48:47.523Z,4.30
2023-03-29T11:51:20.032Z,4.18
2023-03-29T11:53:56.210Z,4.65
2023-03-29T11:56:29.278Z,4.03
2023-03-29T11:59:02.379Z,3.92
2023-03-29T12:01:32.923Z,4.05
2023-03-29T12:04:03.254Z,4.28
2023-03-29T12:06:37.817Z,3.58
2023-03-29T12:09:10.431Z,4.35
2023-03-29T12:11:40.367Z,4.45
2023-03-29T12:14:12.195Z,4.07
2023-03-29T12:19:16.440Z,3.42
2023-03-29T12:21:45.857Z,3.30
2023-03-29T12:24:14.428Z,3.35
2023-03-29T12:26:54.228Z,3.22
2023-03-29T12:29:33.665Z,4.18
2023-03-29T12:32:17.092Z,3.38
2023-03-29T12:34:59.802Z,3.78
2023-03-29T12:37:36.179Z,3.90
2023-03-29T12:40:13.117Z,4.15
2023-03-29T12:42:48.185Z,3.78
2023-03-29T12:45:20.252Z,3.58
2023-03-29T12:47:48.704Z,3.65
2023-03-29T12:50:25.735Z,3.22
2023-03-29T12:53:02.209Z,3.80
2023-03-29T12:55:32.868Z,3.17
2023-03-29T12:58:06.428Z,4.13
2023-03-29T13:00:43.274Z,4.53
2023-03-29T13:03:22.516Z,4.00
2023-03-29T13:06:00.721Z,4.20
2023-03-29T13:08:35.974Z,3.97
2023-03-29T13:11:04.381Z,4.13
2023-03-29T13:13:34.997Z,3.92
2023-03-29T13:16:13.207Z,4.07
2023-03-29T13:18:54.545Z,3.67
2023-03-29T13:21:25.915Z,3.25
2023-03-29T13:24:00.666Z,3.78
2023-03-29T13:26:38.647Z,3.35
2023-03-29T13:29:17.763Z,3.40
2023-03-29T13:31:51.591Z,3.10
2023-03-29T13:34:29.425Z,3.83
2023-03-29T13:37:05.948Z,4.60
2023-03-29T13:39:36.993Z,4.65
2023-03-29T13:42:17.928Z,4.27
2023-03-29T13:44:49.096Z,3.95
2023-03-29T13:47:30.392Z,4.22
2023-03-29T13:49:59.767Z,3.83
2023-03-29T13:52:28.932Z,4.28
2023-03-29T13:55:02.288Z,4.47
2023-03-29T13:57:34.869Z,4.03
2023-03-29T14:00:07.480Z,4.03
2023-03-29T14:02:39.504Z,4.40
2023-03-29T14:05:10.764Z,4.03
2023-03-29T14:07:40.928Z,4.65
2023-03-29T14:10:13.405Z,4.63
2023-03-29T14:12:42.224Z,4.30
2023-03-29T14:15:21.480Z,4.30
2023-03-29T14:17:49.145Z,3.78
2023-03-29T14:20:17.014Z,4.43
2023-03-29T14:22:45.079Z,4.47
2023-03-29T14:25:17.210Z,4.38
2023-03-29T14:27:45.191Z,4.43
2023-03-29T14:30:26.064Z,4.72
2023-03-29T14:32:53.732Z,5.40
2023-03-29T14:35:21.822Z,4.38
2023-03-29T14:37:50.010Z,4.65
2023-03-29T14:40:20.503Z,4.90
2023-03-29T14:42:49.109Z,4.40
2023-03-29T14:45:18.974Z,5.03
2023-03-29T14:47:47.334Z,4.90
2023-03-29T14:50:20.324Z,5.00
2023-03-29T14:52:50.334Z,6.05
2023-03-29T14:55:23.779Z,5.03
2023-03-29T14:57:52.737Z,4.90
2023-03-29T15:00:26.278Z,5.20
2023-03-29T15:02:59.117Z,5.55
2023-03-29T15:05:33.422Z,5.75
2023-03-29T15:08:02.289Z,5.32
2023-03-29T15:10:32.781Z,5.70
2023-03-29T15:13:02.580Z,5.45
2023-03-29T15:15:32.325Z,5.70
2023-03-29T15:17:59.955Z,5.10
2023-03-29T15:20:29.659Z,5.50
2023-03-29T15:23:00.189Z,5.72
2023-03-29T15:25:29.344Z,5.63
2023-03-29T15:28:00.941Z,6.00
2023-03-29T15:30:36.453Z,6.75
2023-03-29T15:33:14.988Z,5.78
2023-03-29T15:35:43.848Z,6.30
2023-03-29T15:38:11.995Z,6.20
2023-03-29T15:40:39.676Z,5.15
2023-03-29T15:43:08.689Z,5.43
2023-03-29T15:45:36.206Z,6.50
2023-03-29T15:48:05.607Z,5.75
2023-03-29T15:50:34.053Z,5.97
2023-03-29T15:53:14.116Z,5.70
2023-03-29T15:55:44.754Z,4.43
2023-03-29T15:58:15.568Z,5.78
2023-03-29T16:00:45.000Z,6.18
2023-03-29T16:03:16.804Z,5.65
2023-03-29T16:05:45.339Z,6.07
2023-03-29T16:08:12.910Z,5.93
2023-03-29T16:10:41.214Z,6.70
2023-03-29T16:13:08.974Z,5.43
2023-03-29T16:15:37.858Z,6.43
2023-03-29T16:18:05.607Z,5.88
2023-03-29T16:20:33.184Z,6.00
2023-03-29T16:23:01.037Z,6.18
2023-03-29T16:25:28.669Z,6.25
2023-03-29T16:27:56.492Z,5.53
2023-03-29T16:30:24.919Z,5.07
2023-03-29T16:32:53.745Z,5.20
2023-03-29T16:35:25.849Z,5.78
2023-03-29T16:37:53.713Z,6.18
2023-03-29T16:40:21.966Z,6.22
2023-03-29T16:42:50.043Z,6.05
2023-03-29T16:45:18.093Z,5.88
2023-03-29T16:47:45.794Z,5.45
2023-03-29T16:50:16.586Z,5.05
2023-03-29T16:52:44.114Z,6.30
2023-03-29T16:55:13.230Z,5.78
2023-03-29T16:57:41.182Z,6.50
2023-03-29T17:00:10.874Z,5.50
2023-03-29T17:02:38.681Z,5.78
2023-03-29T17:05:07.257Z,5.72
2023-03-29T17:07:36.112Z,4.75
2023-03-29T17:10:04.684Z,6.10
2023-03-29T17:12:32.221Z,4.93
2023-03-29T17:14:59.739Z,4.88
2023-03-29T17:17:27.229Z,5.45
2023-03-29T17:19:56.016Z,5.90
2023-03-29T17:22:23.622Z,5.57
2023-03-29T17:24:52.720Z,5.10
2023-03-29T17:27:20.983Z,5.97
2023-03-29T17:29:48.786Z,5.47
2023-03-29T17:32:16.301Z,5.03
2023-03-29T17:34:43.794Z,5.97
2023-03-29T17:37:11.244Z,5.95
2023-03-29T17:39:38.770Z,6.65
2023-03-29T17:42:07.745Z,6.53
2023-03-29T17:44:35.324Z,6.88
2023-03-29T17:47:02.960Z,6.40
2023-03-29T17:49:30.647Z,7.03
2023-03-29T17:51:58.182Z,6.05
2023-03-29T17:54:26.060Z,6.18
2023-03-29T17:56:53.661Z,6.35
2023-03-29T17:59:22.457Z,6.20
2023-03-29T18:01:50.038Z,6.00
2023-03-29T18:04:17.553Z,5.20
2023-03-29T18:06:45.686Z,6.28
2023-03-29T18:09:13.903Z,5.40
2023-03-29T18:11:41.370Z,7.00
2023-03-29T18:14:08.944Z,10.05
2023-03-29T18:16:37.771Z,11.27
2023-03-29T18:19:05.388Z,10.82
2023-03-29T18:21:32.887Z,8.65
2023-03-29T18:24:00.656Z,8.25
2023-03-29T18:26:28.529Z,7.45
2023-03-29T18:28:56.019Z,7.22
2023-03-29T18:31:23.752Z,6.82
2023-03-29T18:33:52.577Z,6.10
2023-03-29T18:36:20.676Z,5.93
2023-03-29T18:38:49.157Z,6.03
2023-03-29T18:41:17.009Z,6.50
2023-03-29T18:43:45.077Z,6.63
2023-03-29T18:46:13.065Z,6.22
2023-03-29T18:48:41.172Z,6.53
2023-03-29T18:51:11.613Z,6.55
2023-03-29T18:53:41.742Z,6.53
2023-03-29T18:56:09.472Z,6.25
2023-03-29T18:58:37.166Z,5.88
2023-03-29T19:01:06.221Z,5.88
2023-03-29T19:03:35.162Z,6.65
2023-03-29T19:06:03.913Z,6.22
2023-03-29T19:08:34.613Z,6.30
2023-03-29T19:11:03.680Z,6.47
2023-03-29T19:13:31.286Z,7.07
2023-03-29T19:15:58.806Z,6.80
2023-03-29T19:18:26.523Z,6.47
2023-03-29T19:20:54.862Z,6.63
2023-03-29T19:23:22.653Z,7.22
2023-03-29T19:25:54.917Z,6.35
2023-03-29T19:28:22.734Z,7.05
2023-03-29T19:30:50.426Z,6.97
2023-03-29T19:33:18.437Z,6.35
2023-03-29T19:35:46.215Z,5.97
2023-03-29T19:38:13.747Z,7.03
2023-03-29T19:40:45.525Z,5.88
2023-03-29T19:43:16.724Z,6.63
2023-03-29T19:45:44.455Z,6.63
2023-03-29T19:48:21.149Z,7.03
2023-03-29T19:50:49.619Z,7.22
2023-03-29T19:53:17.179Z,6.75
2023-03-29T19:55:45.420Z,7.35
2023-03-29T19:58:14.578Z,6.85
2023-03-29T20:00:42.145Z,7.22
2023-03-29T20:03:10.481Z,7.07
2023-03-29T20:05:38.368Z,6.88
2023-03-29T20:08:05.935Z,6.80
2023-03-29T20:10:33.946Z,6.80
2023-03-29T20:13:01.713Z,7.32
2023-03-29T20:15:30.583Z,7.25
2023-03-29T20:17:59.850Z,6.68
2023-03-29T20:20:28.466Z,7.07
2023-03-29T20:23:04.520Z,6.60
2023-03-29T20:25:33.018Z,6.25
2023-03-29T20:28:00.612Z,7.10
2023-03-29T20:30:28.155Z,6.85
2023-03-29T20:32:57.254Z,6.53
2023-03-29T20:35:24.775Z,6.57
2023-03-29T20:37:52.278Z,6.25
2023-03-29T20:40:20.818Z,6.68
2023-03-29T20:42:49.017Z,6.22
2023-03-29T20:45:19.315Z,6.30
2023-03-29T20:47:57.529Z,6.55
2023-03-29T20:50:30.237Z,6.70
2023-03-29T20:53:03.695Z,6.78
2023-03-29T20:55:33.391Z,6.75
2023-03-29T20:58:01.627Z,6.63
2023-03-29T21:00:30.641Z,6.40
2023-03-29T21:02:59.083Z,6.97
2023-03-29T21:05:29.375Z,6.88
2023-03-29T21:07:57.072Z,6.72
2023-03-29T21:10:25.916Z,6.72
2023-03-29T21:12:54.313Z,6.90
2023-03-29T21:15:22.210Z,7.13
2023-03-29T21:17:49.685Z,6.90
2023-03-29T21:20:17.440Z,7.97
2023-03-29T21:22:46.363Z,7.45
2023-03-29T21:25:15.860Z,7.63
2023-03-29T21:27:43.609Z,7.53
2023-03-29T21:30:11.877Z,7.00
2023-03-29T21:32:39.495Z,6.68
2023-03-29T21:35:08.054Z,7.40
2023-03-29T21:37:35.720Z,7.47
2023-03-29T21:40:06.621Z,7.07
2023-03-29T21:42:34.487Z,7.10
2023-03-29T21:45:02.058Z,7.28
2023-03-29T21:47:30.045Z,6.43
2023-03-29T21:49:57.663Z,6.75
2023-03-29T21:52:25.217Z,7.55
2023-03-29T21:54:52.743Z,7.65
2023-03-29T21:57:21.687Z,7.50
2023-03-29T21:59:49.421Z,6.95
2023-03-29T22:02:16.982Z,7.32
2023-03-29T22:04:44.595Z,6.90
2023-03-29T22:07:12.450Z,7.72
2023-03-29T22:09:42.389Z,7.80
2023-03-29T22:12:10.699Z,7.78
2023-03-29T22:14:39.600Z,6.45
2023-03-29T22:17:07.645Z,6.57
2023-03-29T22:19:39.140Z,6.97
2023-03-29T22:24:34.763Z,6.68
2023-03-29T22:27:02.582Z,6.70
2023-03-29T22:29:30.118Z,7.65
2023-03-29T22:31:58.972Z,7.85
2023-03-29T22:34:26.548Z,7.22
2023-03-29T22:36:53.984Z,6.72
2023-03-29T22:39:21.501Z,6.88
2023-03-29T22:41:49.066Z,6.93
2023-03-29T22:44:16.539Z,6.38
2023-03-29T22:46:44.018Z,6.25
2023-03-29T22:49:12.839Z,6.32
2023-03-29T22:51:40.332Z,6.55
2023-03-29T22:54:07.908Z,6.53
2023-03-29T22:56:35.655Z,7.00
2023-03-29T22:59:03.207Z,6.97
2023-03-29T23:01:30.922Z,6.25
2023-03-29T23:03:58.505Z,6.00
2023-03-29T23:06:27.355Z,6.93
2023-03-29T23:08:55.011Z,7.07
2023-03-29T23:11:22.870Z,6.53
2023-03-29T23:13:50.481Z,6.65
2023-03-29T23:16:20.746Z,7.30
2023-03-29T23:18:48.440Z,7.82
2023-03-29T23:21:16.408Z,7.50
2023-03-29T23:23:45.212Z,7.20
2023-03-29T23:26:12.764Z,7.10
2023-03-29T23:28:41.105Z,6.57
2023-03-29T23:31:10.652Z,7.18
2023-03-29T23:33:41.169Z,7.00
2023-03-29T23:36:10.548Z,7.13
2023-03-29T23:38:39.740Z,7.10
2023-03-29T23:41:10.349Z,7.15
2023-03-29T23:43:40.698Z,6.78
2023-03-29T23:46:10.403Z,7.47
2023-03-29T23:48:38.672Z,6.43
2023-03-29T23:51:07.963Z,6.93
2023-03-29T23:53:35.455Z,6.63
2023-03-29T23:56:05.017Z,6.30
2023-03-29T23:58:36.024Z,6.18
